createdAt,value
2019-04-01T00:00:54.762Z,1.20
2019-04-01T00:03:21.729Z,1.40
2019-04-01T00:05:48.522Z,1.30
2019-04-01T00:08:15.436Z,1.00
2019-04-01T00:10:42.234Z,1.87
2019-04-01T00:13:09.180Z,2.33
2019-04-01T00:15:36.106Z,1.60
2019-04-01T00:18:02.977Z,1.00
2019-04-01T00:20:29.862Z,1.30
2019-04-01T00:22:56.828Z,1.13
2019-04-01T00:25:23.857Z,1.13
2019-04-01T00:27:50.639Z,1.30
2019-04-01T00:30:17.578Z,1.20
2019-04-01T00:32:44.371Z,1.20
2019-04-01T00:35:11.283Z,1.60
2019-04-01T00:37:38.102Z,0.80
2019-04-01T00:40:05.230Z,1.30
2019-04-01T00:42:36.819Z,1.20
2019-04-01T00:45:04.804Z,0.97
2019-04-01T00:47:31.582Z,1.50
2019-04-01T00:49:58.362Z,1.40
2019-04-01T00:52:25.199Z,1.33
2019-04-01T00:54:51.987Z,1.20
2019-04-01T00:57:18.759Z,1.10
2019-04-01T00:59:45.577Z,1.40
2019-04-01T01:02:12.379Z,1.03
2019-04-01T01:04:39.270Z,1.20
2019-04-01T01:07:06.478Z,0.80
2019-04-01T01:09:33.375Z,1.20
2019-04-01T01:12:00.263Z,1.00
2019-04-01T01:14:27.185Z,1.23
2019-04-01T01:16:54.005Z,1.27
2019-04-01T01:19:20.870Z,1.10
2019-04-01T01:21:47.686Z,1.20
2019-04-01T01:24:14.469Z,1.23
2019-04-01T01:26:41.257Z,1.00
2019-04-01T01:29:08.166Z,1.13
2019-04-01T01:31:34.973Z,1.20
2019-04-01T01:34:01.773Z,1.00
2019-04-01T01:36:28.705Z,1.10
2019-04-01T01:38:55.484Z,1.00
2019-04-01T01:41:22.265Z,1.63
2019-04-01T01:43:49.073Z,1.27
2019-04-01T01:46:15.856Z,1.00
2019-04-01T01:48:42.625Z,0.90
2019-04-01T01:51:09.442Z,1.07
2019-04-01T01:53:36.255Z,1.40
2019-04-01T01:56:03.346Z,1.17
2019-04-01T01:58:30.164Z,1.20
2019-04-01T02:00:56.974Z,1.10
2019-04-01T02:03:23.776Z,1.10
2019-04-01T02:05:50.713Z,1.10
2019-04-01T02:08:17.498Z,1.00
2019-04-01T02:10:44.292Z,1.30
2019-04-01T02:13:11.121Z,1.00
2019-04-01T02:15:37.931Z,1.20
2019-04-01T02:18:04.717Z,1.07
2019-04-01T02:20:31.533Z,1.20
2019-04-01T02:22:58.310Z,1.23
2019-04-01T02:25:25.105Z,1.17
2019-04-01T02:27:52.035Z,1.07
2019-04-01T02:30:18.826Z,1.17
2019-04-01T02:32:45.594Z,1.23
2019-04-01T02:35:12.625Z,1.20
2019-04-01T02:37:39.432Z,1.13
2019-04-01T02:40:06.610Z,1.07
2019-04-01T02:42:33.422Z,1.17
2019-04-01T02:45:00.623Z,1.00
2019-04-01T02:47:27.942Z,1.17
2019-04-01T02:49:54.925Z,1.03
2019-04-01T02:52:21.893Z,0.93
2019-04-01T02:54:48.681Z,0.93
2019-04-01T02:57:15.503Z,1.13
2019-04-01T02:59:42.274Z,1.33
2019-04-01T03:02:09.268Z,1.37
2019-04-01T03:04:36.091Z,1.13
2019-04-01T03:07:02.979Z,0.97
2019-04-01T03:09:29.775Z,0.83
2019-04-01T03:11:56.590Z,1.13
2019-04-01T03:14:23.494Z,1.40
2019-04-01T03:16:50.307Z,1.40
2019-04-01T03:19:17.243Z,1.20
2019-04-01T03:21:44.031Z,1.60
2019-04-01T03:24:10.827Z,1.20
2019-04-01T03:26:37.739Z,1.20
2019-04-01T03:29:04.628Z,1.33
2019-04-01T03:31:31.439Z,1.20
2019-04-01T03:33:58.296Z,1.30
2019-04-01T03:36:25.076Z,1.17
2019-04-01T03:38:51.879Z,0.80
2019-04-01T03:41:18.803Z,1.37
2019-04-01T03:43:45.581Z,1.10
2019-04-01T03:46:12.470Z,1.13
2019-04-01T03:48:39.520Z,1.70
2019-04-01T03:51:06.406Z,1.10
2019-04-01T03:53:33.414Z,1.10
2019-04-01T03:56:00.329Z,1.60
2019-04-01T03:58:27.219Z,1.30
2019-04-01T04:00:54.003Z,1.20
2019-04-01T04:03:20.938Z,1.30
2019-04-01T04:05:47.829Z,1.30
2019-04-01T04:08:14.709Z,1.40
2019-04-01T04:10:41.532Z,1.17
2019-04-01T04:13:08.437Z,1.40
2019-04-01T04:15:35.327Z,1.30
2019-04-01T04:18:02.353Z,1.30
2019-04-01T04:20:29.237Z,1.53
2019-04-01T04:22:56.021Z,1.23
2019-04-01T04:25:23.151Z,0.90
2019-04-01T04:27:49.938Z,1.20
2019-04-01T04:30:18.411Z,1.00
2019-04-01T04:32:45.246Z,1.20
2019-04-01T04:35:12.159Z,1.97
2019-04-01T04:37:39.227Z,1.23
2019-04-01T04:40:06.449Z,1.20
2019-04-01T04:42:33.231Z,1.20
2019-04-01T04:45:00.416Z,1.43
2019-04-01T04:47:27.325Z,1.40
2019-04-01T04:49:54.241Z,1.40
2019-04-01T04:52:21.025Z,1.20
2019-04-01T04:54:47.855Z,1.40
2019-04-01T04:57:14.643Z,1.80
2019-04-01T04:59:41.648Z,1.80
2019-04-01T05:02:08.460Z,1.40
2019-04-01T05:04:35.385Z,1.53
2019-04-01T05:07:02.375Z,1.60
2019-04-01T05:09:29.302Z,1.40
2019-04-01T05:11:56.089Z,1.47
2019-04-01T05:14:22.875Z,1.50
2019-04-01T05:16:49.814Z,1.47
2019-04-01T05:19:16.706Z,1.27
2019-04-01T05:21:44.785Z,1.70
2019-04-01T05:24:12.402Z,1.30
2019-04-01T05:26:42.615Z,1.63
2019-04-01T05:29:09.593Z,1.50
2019-04-01T05:31:39.930Z,1.80
2019-04-01T05:34:09.010Z,1.20
2019-04-01T05:36:36.198Z,1.80
2019-04-01T05:39:05.265Z,1.60
2019-04-01T05:41:51.791Z,1.17
2019-04-01T05:44:18.990Z,1.47
2019-04-01T05:46:45.894Z,1.10
2019-04-01T05:49:12.894Z,0.80
2019-04-01T05:51:39.915Z,0.90
2019-04-01T05:54:06.897Z,0.93
2019-04-01T05:56:33.894Z,1.00
2019-04-01T05:59:00.966Z,1.33
2019-04-01T06:01:33.527Z,1.80
2019-04-01T06:04:00.538Z,1.67
2019-04-01T06:06:27.467Z,1.47
2019-04-01T06:08:54.573Z,1.30
2019-04-01T06:11:21.665Z,1.50
2019-04-01T06:13:48.690Z,1.37
2019-04-01T06:16:15.798Z,1.90
2019-04-01T06:18:42.810Z,1.20
2019-04-01T06:21:09.898Z,1.33
2019-04-01T06:23:36.919Z,3.87
2019-04-01T06:26:03.938Z,3.50
2019-04-01T06:28:31.068Z,1.70
2019-04-01T06:30:58.078Z,2.20
2019-04-01T06:33:25.106Z,3.10
2019-04-01T06:35:54.503Z,2.17
2019-04-01T06:38:21.516Z,2.80
2019-04-01T06:40:50.514Z,1.80
2019-04-01T06:43:17.568Z,2.13
2019-04-01T06:45:44.506Z,2.07
2019-04-01T06:48:11.548Z,3.53
2019-04-01T06:50:38.618Z,3.20
2019-04-01T06:53:05.535Z,2.50
2019-04-01T06:55:32.562Z,1.17
2019-04-01T06:57:59.495Z,1.47
2019-04-01T07:00:26.387Z,0.80
2019-04-01T07:02:53.282Z,1.17
2019-04-01T07:05:20.318Z,0.67
2019-04-01T07:07:47.111Z,0.80
2019-04-01T07:10:14.086Z,0.97
2019-04-01T07:12:41.129Z,0.90
2019-04-01T07:15:08.110Z,0.70
2019-04-01T07:17:35.028Z,0.97
2019-04-01T07:20:02.145Z,1.60
2019-04-01T07:22:29.137Z,0.90
2019-04-01T07:24:55.953Z,1.00
2019-04-01T07:27:22.878Z,1.27
2019-04-01T07:29:49.866Z,0.57
2019-04-01T07:32:16.859Z,0.60
2019-04-01T07:34:43.807Z,1.10
2019-04-01T07:37:10.780Z,1.10
2019-04-01T07:39:37.774Z,0.90
2019-04-01T07:42:04.696Z,0.80
2019-04-01T07:44:31.992Z,0.73
2019-04-01T07:46:58.807Z,0.70
2019-04-01T07:49:45.341Z,0.80
2019-04-01T07:52:12.330Z,0.90
2019-04-01T07:54:39.641Z,0.93
2019-04-01T07:57:06.569Z,0.80
2019-04-01T07:59:33.566Z,0.93
2019-04-01T08:02:00.486Z,0.80
2019-04-01T08:04:27.421Z,0.90
2019-04-01T08:06:54.318Z,0.70
2019-04-01T08:09:22.705Z,0.80
2019-04-01T08:11:50.229Z,0.80
2019-04-01T08:14:17.469Z,0.63
2019-04-01T08:16:44.467Z,1.37
2019-04-01T08:19:11.506Z,0.60
2019-04-01T08:21:38.299Z,0.53
2019-04-01T08:24:05.190Z,0.67
2019-04-01T08:26:32.531Z,0.60
2019-04-01T08:28:59.511Z,0.60
2019-04-01T08:31:26.314Z,0.40
2019-04-01T08:33:53.241Z,0.53
2019-04-01T08:36:20.242Z,0.70
2019-04-01T08:38:47.061Z,0.50
2019-04-01T08:41:14.106Z,0.63
2019-04-01T08:43:41.135Z,0.67
2019-04-01T08:46:08.025Z,0.80
2019-04-01T08:48:35.662Z,0.50
2019-04-01T08:51:02.887Z,1.10
2019-04-01T08:53:29.773Z,0.50
2019-04-01T08:56:00.954Z,0.70
2019-04-01T08:58:25.673Z,0.60
2019-04-01T09:00:52.586Z,0.43
2019-04-01T09:03:19.427Z,0.70
2019-04-01T09:05:46.469Z,0.90
2019-04-01T09:08:13.533Z,0.90
2019-04-01T09:10:41.808Z,0.80
2019-04-01T09:13:09.326Z,1.00
2019-04-01T09:15:36.325Z,1.30
2019-04-01T09:18:06.283Z,0.90
2019-04-01T09:20:33.290Z,1.20
2019-04-01T09:23:00.094Z,0.90
2019-04-01T09:25:26.923Z,0.80
2019-04-01T09:27:53.718Z,0.73
2019-04-01T09:30:20.725Z,0.50
2019-04-01T09:32:47.689Z,0.60
2019-04-01T09:35:14.588Z,0.50
2019-04-01T09:37:41.603Z,0.50
2019-04-01T09:40:09.342Z,0.40
2019-04-01T09:42:36.225Z,0.40
2019-04-01T09:45:04.487Z,0.40
2019-04-01T09:47:31.377Z,0.40
2019-04-01T09:49:58.253Z,0.30
2019-04-01T09:52:25.169Z,0.40
2019-04-01T09:54:52.228Z,0.30
2019-04-01T09:57:19.018Z,0.40
2019-04-01T09:59:45.810Z,0.20
2019-04-01T10:02:12.974Z,0.30
2019-04-01T10:04:39.786Z,0.43
2019-04-01T10:07:06.719Z,0.50
2019-04-01T10:09:33.639Z,0.30
2019-04-01T10:12:00.540Z,0.70
2019-04-01T10:14:27.441Z,0.50
2019-04-01T10:16:54.402Z,0.40
2019-04-01T10:19:21.298Z,0.50
2019-04-01T10:21:48.207Z,0.30
2019-04-01T10:24:15.220Z,0.33
2019-04-01T10:26:42.118Z,0.20
2019-04-01T10:29:09.113Z,0.50
2019-04-01T10:31:36.042Z,0.10
2019-04-01T10:34:03.061Z,0.50
2019-04-01T10:36:29.978Z,0.30
2019-04-01T10:38:56.922Z,0.23
2019-04-01T10:41:23.914Z,0.20
2019-04-01T10:43:50.950Z,0.20
2019-04-01T10:46:17.882Z,0.40
2019-04-01T10:48:44.824Z,0.20
2019-04-01T10:51:11.781Z,0.30
2019-04-01T10:53:38.727Z,0.40
2019-04-01T10:56:05.677Z,0.43
2019-04-01T10:58:32.606Z,0.20
2019-04-01T11:00:59.490Z,0.20
2019-04-01T11:03:26.498Z,0.30
2019-04-01T11:05:53.391Z,0.23
2019-04-01T11:08:20.410Z,0.30
2019-04-01T11:10:47.470Z,0.20
2019-04-01T11:13:14.364Z,0.20
2019-04-01T11:15:41.394Z,0.20
2019-04-01T11:18:08.290Z,0.30
2019-04-01T11:20:35.204Z,0.30
2019-04-01T11:23:02.847Z,0.20
2019-04-01T11:25:30.483Z,0.30
2019-04-01T11:27:57.266Z,0.20
2019-04-01T11:30:24.199Z,0.20
2019-04-01T11:32:51.111Z,0.10
2019-04-01T11:35:18.118Z,0.40
2019-04-01T11:37:45.077Z,0.20
2019-04-01T11:40:12.742Z,0.20
2019-04-01T11:42:40.845Z,0.10
2019-04-01T11:45:08.769Z,0.13
2019-04-01T11:47:35.809Z,0.20
2019-04-01T11:50:03.042Z,0.27
2019-04-01T11:52:30.001Z,0.63
2019-04-01T11:54:57.078Z,0.40
2019-04-01T11:57:23.883Z,0.30
2019-04-01T11:59:50.714Z,0.30
2019-04-01T12:02:17.642Z,0.20
2019-04-01T12:04:44.533Z,0.30
2019-04-01T12:07:11.577Z,0.30
2019-04-01T12:09:38.474Z,0.60
2019-04-01T12:12:05.269Z,0.30
2019-04-01T12:14:32.210Z,0.40
2019-04-01T12:16:59.131Z,0.10
2019-04-01T12:19:26.019Z,0.30
2019-04-01T12:21:52.858Z,0.30
2019-04-01T12:24:19.679Z,0.30
2019-04-01T12:26:47.167Z,0.30
2019-04-01T12:29:14.572Z,0.30
2019-04-01T12:31:41.843Z,0.10
2019-04-01T12:34:08.854Z,0.20
2019-04-01T12:36:35.691Z,0.30
2019-04-01T12:39:05.399Z,0.20
2019-04-01T12:41:32.285Z,0.20
2019-04-01T12:43:59.206Z,0.30
2019-04-01T12:46:26.112Z,0.13
2019-04-01T12:48:52.914Z,0.20
2019-04-01T12:51:19.769Z,0.13
2019-04-01T12:53:46.660Z,0.20
2019-04-01T12:56:13.580Z,0.20
2019-04-01T12:58:40.498Z,0.17
2019-04-01T13:01:07.378Z,0.20
2019-04-01T13:03:34.312Z,0.40
2019-04-01T13:06:01.174Z,0.23
2019-04-01T13:08:28.075Z,0.20
2019-04-01T13:10:56.671Z,0.37
2019-04-01T13:13:23.708Z,0.20
2019-04-01T13:15:50.513Z,0.20
2019-04-01T13:18:18.822Z,0.30
2019-04-01T13:20:45.982Z,0.20
2019-04-01T13:23:12.805Z,0.20
2019-04-01T13:25:39.694Z,0.17
2019-04-01T13:28:06.525Z,0.20
2019-04-01T13:30:33.318Z,0.63
2019-04-01T13:33:00.204Z,0.23
2019-04-01T13:35:27.163Z,0.23
2019-04-01T13:37:53.966Z,0.20
2019-04-01T13:40:20.783Z,0.10
2019-04-01T13:42:47.593Z,0.60
2019-04-01T13:45:14.507Z,0.40
2019-04-01T13:47:41.529Z,0.20
2019-04-01T13:50:08.958Z,0.20
2019-04-01T13:52:35.788Z,0.27
2019-04-01T13:55:02.869Z,0.20
2019-04-01T13:57:29.734Z,0.30
2019-04-01T13:59:56.631Z,0.23
2019-04-01T14:02:23.717Z,0.30
2019-04-01T14:04:50.642Z,0.20
2019-04-01T14:07:17.430Z,0.20
2019-04-01T14:09:44.242Z,0.13
2019-04-01T14:12:11.170Z,0.03
2019-04-01T14:14:37.958Z,0.40
2019-04-01T14:17:04.870Z,0.50
2019-04-01T14:19:31.806Z,0.23
2019-04-01T14:21:58.606Z,0.20
2019-04-01T14:24:25.505Z,0.20
2019-04-01T14:26:52.343Z,0.20
2019-04-01T14:29:19.242Z,0.70
2019-04-01T14:31:46.025Z,0.20
2019-04-01T14:34:13.924Z,0.10
2019-04-01T14:36:41.537Z,0.27
2019-04-01T14:39:08.578Z,0.30
2019-04-01T14:41:35.530Z,0.30
2019-04-01T14:44:02.537Z,0.30
2019-04-01T14:46:29.434Z,0.20
2019-04-01T14:48:59.869Z,0.50
2019-04-01T14:51:24.981Z,0.20
2019-04-01T14:53:51.773Z,0.63
2019-04-01T14:56:18.733Z,0.20
2019-04-01T14:58:45.611Z,0.20
2019-04-01T15:01:12.519Z,0.20
2019-04-01T15:03:39.574Z,0.30
2019-04-01T15:06:06.611Z,0.30
2019-04-01T15:08:33.500Z,0.20
2019-04-01T15:11:00.359Z,0.10
2019-04-01T15:13:27.236Z,0.30
2019-04-01T15:15:54.034Z,0.20
2019-04-01T15:18:20.981Z,0.17
2019-04-01T15:20:48.028Z,0.20
2019-04-01T15:23:14.814Z,0.20
2019-04-01T15:25:41.671Z,0.40
2019-04-01T15:28:08.678Z,0.30
2019-04-01T15:30:35.667Z,0.20
2019-04-01T15:33:02.702Z,0.90
2019-04-01T15:35:29.492Z,0.20
2019-04-01T15:37:56.283Z,0.40
2019-04-01T15:40:23.113Z,0.30
2019-04-01T15:42:50.011Z,0.40
2019-04-01T15:45:16.813Z,0.30
2019-04-01T15:47:43.652Z,0.30
2019-04-01T15:50:10.666Z,0.30
2019-04-01T15:52:37.588Z,0.47
2019-04-01T15:55:04.978Z,0.40
2019-04-01T15:57:31.958Z,0.50
2019-04-01T15:59:58.750Z,0.70
2019-04-01T16:02:25.786Z,0.37
2019-04-01T16:04:52.661Z,0.60
2019-04-01T16:07:22.398Z,0.30
2019-04-01T16:09:48.178Z,0.40
2019-04-01T16:12:16.066Z,0.50
2019-04-01T16:14:43.154Z,0.40
2019-04-01T16:17:10.526Z,0.40
2019-04-01T16:19:37.431Z,0.50
2019-04-01T16:22:04.325Z,0.40
2019-04-01T16:24:31.276Z,0.60
2019-04-01T16:26:58.913Z,0.50
2019-04-01T16:29:25.696Z,0.50
2019-04-01T16:31:55.335Z,0.57
2019-04-01T16:34:22.519Z,0.80
2019-04-01T16:36:50.660Z,0.63
2019-04-01T16:39:17.600Z,0.40
2019-04-01T16:41:44.521Z,0.47
2019-04-01T16:44:11.527Z,0.40
2019-04-01T16:46:38.565Z,0.50
2019-04-01T16:49:05.581Z,0.50
2019-04-01T16:51:32.606Z,0.50
2019-04-01T16:53:59.442Z,0.90
2019-04-01T16:56:26.218Z,0.40
2019-04-01T16:58:53.123Z,0.40
2019-04-01T17:01:20.058Z,0.50
2019-04-01T17:03:46.878Z,0.23
2019-04-01T17:06:13.782Z,0.50
2019-04-01T17:08:40.810Z,0.50
2019-04-01T17:11:07.793Z,0.40
2019-04-01T17:13:34.778Z,0.43
2019-04-01T17:16:01.863Z,0.30
2019-04-01T17:18:29.314Z,0.40
2019-04-01T17:20:56.216Z,0.60
2019-04-01T17:23:23.048Z,0.50
2019-04-01T17:25:49.937Z,0.40
2019-04-01T17:28:16.836Z,0.50
2019-04-01T17:30:43.850Z,0.70
2019-04-01T17:33:10.854Z,0.70
2019-04-01T17:35:37.761Z,0.90
2019-04-01T17:38:04.687Z,0.67
2019-04-01T17:40:31.471Z,0.60
2019-04-01T17:42:58.253Z,0.70
2019-04-01T17:45:34.808Z,0.80
2019-04-01T17:48:01.788Z,0.50
2019-04-01T17:50:29.192Z,0.90
2019-04-01T17:52:56.518Z,0.57
2019-04-01T17:55:23.539Z,0.70
2019-04-01T17:57:50.527Z,0.70
2019-04-01T18:00:21.438Z,0.80
2019-04-01T18:02:48.432Z,0.43
2019-04-01T18:05:15.628Z,0.60
2019-04-01T18:07:42.682Z,0.60
2019-04-01T18:10:09.677Z,0.60
2019-04-01T18:12:36.474Z,0.90
2019-04-01T18:15:03.512Z,0.70
2019-04-01T18:17:30.412Z,0.83
2019-04-01T18:19:57.203Z,1.37
2019-04-01T18:22:24.038Z,0.73
2019-04-01T18:24:51.194Z,0.80
2019-04-01T18:27:18.934Z,1.03
2019-04-01T18:29:45.757Z,0.97
2019-04-01T18:32:12.759Z,1.30
2019-04-01T18:34:39.565Z,0.80
2019-04-01T18:37:06.400Z,0.80
2019-04-01T18:39:47.139Z,1.03
2019-04-01T18:42:02.930Z,1.00
2019-04-01T18:44:30.125Z,0.97
2019-04-01T18:46:56.934Z,0.70
2019-04-01T18:49:23.734Z,1.00
2019-04-01T18:51:50.666Z,1.00
2019-04-01T18:54:17.518Z,1.00
2019-04-01T18:56:47.492Z,1.03
2019-04-01T18:59:13.063Z,1.20
2019-04-01T19:01:39.862Z,1.00
2019-04-01T19:04:06.761Z,0.80
2019-04-01T19:06:33.808Z,0.97
2019-04-01T19:09:09.105Z,0.80
2019-04-01T19:11:29.303Z,0.90
2019-04-01T19:13:56.274Z,1.20
2019-04-01T19:16:23.260Z,0.80
2019-04-01T19:18:50.133Z,0.60
2019-04-01T19:21:16.949Z,1.00
2019-04-01T19:23:43.769Z,1.30
2019-04-01T19:26:10.555Z,0.87
2019-04-01T19:28:37.500Z,0.73
2019-04-01T19:31:04.395Z,0.93
2019-04-01T19:33:31.199Z,0.80
2019-04-01T19:35:58.243Z,0.70
2019-04-01T19:38:25.206Z,0.80
2019-04-01T19:40:52.623Z,0.80
2019-04-01T19:43:19.542Z,0.90
2019-04-01T19:45:46.422Z,0.93
2019-04-01T19:48:13.308Z,1.00
2019-04-01T19:50:40.219Z,0.93
2019-04-01T19:53:07.018Z,1.40
2019-04-01T19:55:34.390Z,1.00
2019-04-01T19:58:04.831Z,0.70
2019-04-01T20:00:30.757Z,1.00
2019-04-01T20:02:58.049Z,1.17
2019-04-01T20:05:24.976Z,1.53
2019-04-01T20:07:51.754Z,1.27
2019-04-01T20:10:18.634Z,1.30
2019-04-01T20:12:45.689Z,1.60
2019-04-01T20:15:12.720Z,0.80
2019-04-01T20:17:39.702Z,1.13
2019-04-01T20:20:06.946Z,1.23
2019-04-01T20:22:33.830Z,1.27
2019-04-01T20:25:00.743Z,1.20
2019-04-01T20:27:27.577Z,1.20
2019-04-01T20:29:54.423Z,1.50
2019-04-01T20:32:21.217Z,1.40
2019-04-01T20:34:56.807Z,1.17
2019-04-01T20:37:16.726Z,1.00
2019-04-01T20:39:43.682Z,1.00
2019-04-01T20:42:10.514Z,1.20
2019-04-01T20:44:37.310Z,1.73
2019-04-01T20:47:04.102Z,1.90
2019-04-01T20:49:31.149Z,1.10
2019-04-01T20:51:57.964Z,1.47
2019-04-01T20:54:24.854Z,1.13
2019-04-01T20:56:51.895Z,1.87
2019-04-01T20:59:18.668Z,1.40
2019-04-01T21:01:45.553Z,1.40
2019-04-01T21:04:12.486Z,1.40
2019-04-01T21:06:39.269Z,2.30
2019-04-01T21:09:07.752Z,1.10
2019-04-01T21:11:34.690Z,1.20
2019-04-01T21:14:03.102Z,0.80
2019-04-01T21:16:30.178Z,0.90
2019-04-01T21:18:57.027Z,1.10
2019-04-01T21:21:23.818Z,0.83
2019-04-01T21:23:50.625Z,1.00
2019-04-01T21:26:17.453Z,0.70
2019-04-01T21:28:44.254Z,0.83
2019-04-01T21:31:11.176Z,1.10
2019-04-01T21:33:38.094Z,0.83
2019-04-01T21:36:04.999Z,1.17
2019-04-01T21:38:32.963Z,0.90
2019-04-01T21:41:00.051Z,0.70
2019-04-01T21:43:26.847Z,1.00
2019-04-01T21:45:53.651Z,0.80
2019-04-01T21:48:20.562Z,0.73
2019-04-01T21:50:47.334Z,0.80
2019-04-01T21:53:14.127Z,0.93
2019-04-01T21:55:40.945Z,1.03
2019-04-01T21:58:07.739Z,0.67
2019-04-01T22:00:48.549Z,0.90
2019-04-01T22:03:15.629Z,0.60
2019-04-01T22:05:43.262Z,1.10
2019-04-01T22:08:10.445Z,0.77
2019-04-01T22:10:37.221Z,0.87
2019-04-01T22:13:04.126Z,0.80
2019-04-01T22:15:31.053Z,0.80
2019-04-01T22:17:57.943Z,0.80
2019-04-01T22:20:24.849Z,0.60
2019-04-01T22:22:51.783Z,0.70
2019-04-01T22:25:18.582Z,0.67
2019-04-01T22:27:45.374Z,0.70
2019-04-01T22:30:12.593Z,0.50
2019-04-01T22:32:39.486Z,0.57
2019-04-01T22:35:07.888Z,0.47
2019-04-01T22:37:37.218Z,0.50
2019-04-01T22:40:04.419Z,0.50
2019-04-01T22:42:31.199Z,0.60
2019-04-01T22:44:58.029Z,0.70
2019-04-01T22:47:24.816Z,0.50
2019-04-01T22:49:51.605Z,0.60
2019-04-01T22:52:18.438Z,0.63
2019-04-01T22:54:45.241Z,0.50
2019-04-01T22:57:12.125Z,0.50
2019-04-01T22:59:39.063Z,0.60
2019-04-01T23:02:05.981Z,0.50
2019-04-01T23:04:32.769Z,0.60
2019-04-01T23:06:59.685Z,0.40
2019-04-01T23:09:26.667Z,0.40
2019-04-01T23:11:53.866Z,0.43
2019-04-01T23:14:20.810Z,0.40
2019-04-01T23:16:47.822Z,0.67
2019-04-01T23:19:14.623Z,0.50
2019-04-01T23:21:41.470Z,0.50
2019-04-01T23:24:08.373Z,0.80
2019-04-01T23:26:35.281Z,1.17
2019-04-01T23:29:02.203Z,0.40
2019-04-01T23:31:28.969Z,0.63
2019-04-01T23:33:55.753Z,0.50
2019-04-01T23:36:22.590Z,0.40
2019-04-01T23:38:49.470Z,0.40
2019-04-01T23:41:16.364Z,0.67
2019-04-01T23:43:43.426Z,0.83
2019-04-01T23:46:10.420Z,0.60
2019-04-01T23:48:37.201Z,0.60
2019-04-01T23:51:04.223Z,0.40
2019-04-01T23:53:31.437Z,0.70
2019-04-01T23:55:58.810Z,0.77
2019-04-01T23:58:25.622Z,0.80
